Flight Track Log - Related Links

Times and Time Zones

All times are in EDT time to prevent confusion due to time zone crossing. See the AAL1862 flight status page for this flight to view local times or setup timezone preferences in your user account.

Time Position Orientation Groundspeed Altitude Reporting Facility
EDT Latitude Longitude Course Direction KTS MPH feet Rate Location/Type
Mon 07:52:03 32.9167 -97.0333 357° North 173 199 1,500  Level Dallas / Fort Worth TRACON
Mon 07:54:00 32.8533 -96.8000 North  Level FlightAware Approximate
Mon 07:54:15 33.0311 -97.0294 North 240 276 7,700  Level Fort Worth Center
Mon 07:55:00 32.9728 -96.8000 North  Level FlightAware Approximate
Mon 07:55:15 33.1083 -97.0117 11° North 240 276 11,000  Level Fort Worth Center
Mon 07:56:00 33.0921 -96.8018 357° North  Level FlightAware Approximate
Mon 07:57:00 33.2113 -96.8103 357° North  Level FlightAware Approximate
Mon 07:57:15 33.2686 -96.9217 25° Northeast 317 365 15,800  Level Fort Worth Center
Mon 07:58:15 33.3542 -96.8764 24° Northeast 356 410 18,300 2,600 Climbing Fort Worth Center
Mon 07:59:15 33.4603 -96.8208 24° Northeast 368 423 21,000 2,450 Climbing Fort Worth Center
Mon 08:00:15 33.5539 -96.7603 28° Northeast 377 434 23,200 2,150 Climbing Fort Worth Center
Mon 08:01:15 33.6539 -96.6947 29° Northeast 394 453 25,300 1,900 Climbing Fort Worth Center
Mon 08:02:15 33.7536 -96.6292 29° Northeast 401 461 27,000 1,700 Climbing Fort Worth Center
Mon 08:03:15 33.8511 -96.5556 32° Northeast 412 474 28,700 1,750 Climbing Fort Worth Center
Mon 08:04:15 33.9486 -96.4694 36° Northeast 418 481 30,500 1,650 Climbing Fort Worth Center
Mon 08:05:15 34.0439 -96.3808 38° Northeast 423 487 32,000 1,300 Climbing Fort Worth Center
Mon 08:07:15 34.2406 -96.2075 36° Northeast 429 494 34,400 1,267 Climbing Fort Worth Center
Mon 08:08:15 34.3378 -96.1233 36° Northeast 429 494 35,800 1,000 Climbing Fort Worth Center
Mon 08:09:15 34.4350 -96.0386 36° Northeast 429 494 36,400 550 Climbing Fort Worth Center
Mon 08:10:15 34.5300 -95.9514 37° Northeast 429 494 36,900 300 Climbing Fort Worth Center
Mon 08:11:15 34.6292 -95.8639 36° Northeast 436 502 37,000 50 Climbing Fort Worth Center
Mon 08:12:15 34.7239 -95.7789 36° Northeast 428 493 37,000  Level Fort Worth Center
Mon 08:13:15 34.8189 -95.6961 36° Northeast 428 493 37,000  Level Fort Worth Center
Mon 08:14:15 34.9197 -95.6106 35° Northeast 428 493 37,000  Level Fort Worth Center
Mon 08:15:15 35.0042 -95.5353 36° Northeast 435 501 37,000  Level Fort Worth Center
Mon 08:16:15 35.1008 -95.4469 37° Northeast 430 495 37,000  Level Fort Worth Center
Mon 08:17:08 35.1969 -95.3628 36° Northeast 429 494 37,000  Level Memphis Center
Mon 08:18:08 35.2922 -95.2742 37° Northeast 434 499 37,000  Level Memphis Center
Mon 08:19:08 35.3872 -95.1883 36° Northeast 429 494 37,000  Level Memphis Center
Mon 08:20:08 35.4825 -95.1019 36° Northeast 424 488 37,000  Level Memphis Center
Mon 08:21:08 35.5775 -95.0128 37° Northeast 424 488 37,000  Level Memphis Center
Mon 08:22:08 35.6725 -94.9236 37° Northeast 429 494 37,000  Level Memphis Center
Mon 08:23:08 35.7694 -94.8369 36° Northeast 429 494 37,000  Level Memphis Center
Mon 08:24:08 35.8644 -94.7472 37° Northeast 429 494 37,000  Level Memphis Center
Mon 08:25:08 35.9614 -94.6575 37° Northeast 429 494 37,000  Level Memphis Center
Mon 08:27:04 36.1300 -94.5019 37° Northeast 432 497 37,000  Level Kansas City Center
Mon 08:28:05 36.2456 -94.3942 37° Northeast 433 498 37,000  Level Kansas City Center
Mon 08:29:06 36.3411 -94.3042 37° Northeast 433 498 37,000  Level Kansas City Center
Mon 08:30:08 36.4369 -94.2150 37° Northeast 432 497 37,000  Level Kansas City Center
Mon 08:31:09 36.5286 -94.1292 37° Northeast 420 483 37,000  Level Kansas City Center
Mon 08:32:10 36.6208 -94.0419 37° Northeast 416 479 37,000  Level Kansas City Center
Mon 08:33:12 36.7128 -93.9553 37° Northeast 415 478 37,000  Level Kansas City Center
Mon 08:34:13 36.8047 -93.8661 38° Northeast 417 480 37,000 -196 Level Kansas City Center
Mon 08:36:00 36.9580 -93.7173 38° Northeast  Level FlightAware Approximate
Mon 08:37:17 37.0806 -93.6006 38° Northeast 415 478 36,200  Level Kansas City Center
Mon 08:38:19 37.1922 -93.4953 37° Northeast 416 479 35,100 -585 Descending Kansas City Center
Mon 08:39:20 37.2847 -93.4044 38° Northeast 420 483 35,000 -244 Descending Kansas City Center
Mon 08:40:22 37.3775 -93.3133 38° Northeast 420 483 34,600 -683 Descending Kansas City Center
Mon 08:41:23 37.4608 -93.2147 43° Northeast 414 476 33,600 -780 Descending Kansas City Center
Mon 08:42:25 37.5461 -93.1147 43° Northeast 415 478 33,000 -293 Descending Kansas City Center
Mon 08:43:26 37.6300 -93.0167 43° Northeast 413 475 33,000  Level Kansas City Center
Mon 08:44:27 37.7142 -92.9169 43° Northeast 412 474 33,000  Level Kansas City Center
Mon 08:45:29 37.7983 -92.8161 43° Northeast 415 478 33,000  Level Kansas City Center
Mon 08:46:30 37.8792 -92.7206 43° Northeast 412 474 33,000 -848 Level Kansas City Center
Mon 08:48:33 38.0642 -92.5006 43° Northeast 418 481 30,400 -1,330 Descending Kansas City Center
Mon 08:49:35 38.1322 -92.3794 54° Northeast 428 493 28,900 -1,427 Descending Kansas City Center
Mon 08:51:00 38.2019 -92.2040 63° Northeast  Level FlightAware Approximate
Mon 08:51:38 38.2442 -92.1425 63° Northeast 402 463 26,000  Level Kansas City Center
Mon 08:52:39 38.2994 -92.0258 59° Northeast 389 448 24,600 -652 Descending Kansas City Center
Mon 08:54:00 38.3929 -91.8808 51° Northeast  Level FlightAware Approximate
Mon 08:54:42 38.4203 -91.7756 51° Northeast 374 430 24,000  Level Kansas City Center
Mon 08:55:43 38.4747 -91.6625 58° Northeast 373 429 22,300 -1,756 Descending Kansas City Center
Mon 08:56:45 38.5289 -91.5497 58° Northeast 372 428 20,400 -1,902 Descending Kansas City Center
Mon 08:57:46 38.5839 -91.4350 58° Northeast 375 432 18,400 -1,951 Descending Kansas City Center
Mon 08:58:48 38.6394 -91.3192 58° Northeast 373 429 16,400 -1,584 Descending Kansas City Center
Mon 08:59:51 38.6889 -91.2133 59° Northeast 352 405 15,100 -1,065 Descending Kansas City Center
Mon 09:00:52 38.6936 -91.0986 87° East 332 382 14,200 -1,171 Descending Kansas City Center
Mon 09:01:54 38.6939 -90.9883 90° East 319 367 12,700 -1,415 Descending Kansas City Center
Mon 09:02:55 38.6975 -90.8828 87° East 308 354 11,300 -1,463 Descending Kansas City Center
Mon 09:03:57 38.7039 -90.7669 86° East 286 329 9,700 -1,415 Descending Kansas City Center
Mon 09:04:58 38.7081 -90.6761 87° East 271 312 8,400 -823 Descending Kansas City Center
Mon 09:06:01 38.7117 -90.5878 87° East 259 298 8,000 -293 Descending Kansas City Center
Mon 09:07:01 38.7094 -90.4992 92° East 260 299 7,800 -1,263 Descending Kansas City Center
Mon 09:08:33 38.6667 -90.3833 115° Southeast 221 254 4,800 -1,618 Descending Gateway (St. Louis) TRACON
Mon 09:09:33 38.6500 -90.3167 108° East 190 219 3,700 -1,109 Descending Gateway (St. Louis) TRACON
Mon 09:10:05 38.6594 -90.2831 70° East 195 224 3,100 -962 Descending Kansas City Center
Mon 09:12:09 38.7225 -90.3075 343° North 153 176 1,200 -811 Descending Kansas City Center
Mon 09:13:10 38.7414 -90.3444 303° West 137 158 600 -590 Descending Kansas City Center

Login

Don't have an account? Register now (free) for customized features, flight alerts, and more!